sensor_id;sensor_type;location;lat;lon;timestamp;temperature;humidity
14031;DHT22;7090;49.436;8.490;2023-04-12T00:01:51;10.40;1.00
14031;DHT22;7090;49.436;8.490;2023-04-12T00:04:17;10.40;99.90
14031;DHT22;7090;49.436;8.490;2023-04-12T00:06:42;10.30;1.00
14031;DHT22;7090;49.436;8.490;2023-04-12T00:09:13;10.30;1.00
14031;DHT22;7090;49.436;8.490;2023-04-12T00:11:40;10.20;1.00
14031;DHT22;7090;49.436;8.490;2023-04-12T00:14:06;10.20;1.00
14031;DHT22;7090;49.436;8.490;2023-04-12T00:16:32;10.10;99.90
14031;DHT22;7090;49.436;8.490;2023-04-12T00:18:58;10.20;1.00
14031;DHT22;7090;49.436;8.490;2023-04-12T00:21:23;10.20;1.00
14031;DHT22;7090;49.436;8.490;2023-04-12T00:23:53;10.20;1.00
14031;DHT22;7090;49.436;8.490;2023-04-12T00:26:19;10.30;99.90
14031;DHT22;7090;49.436;8.490;2023-04-12T00:28:49;10.30;99.90
14031;DHT22;7090;49.436;8.490;2023-04-12T00:31:15;10.20;99.90
14031;DHT22;7090;49.436;8.490;2023-04-12T00:33:41;10.20;1.00
14031;DHT22;7090;49.436;8.490;2023-04-12T00:36:07;10.20;99.90
14031;DHT22;7090;49.436;8.490;2023-04-12T00:38:32;10.20;1.00
14031;DHT22;7090;49.436;8.490;2023-04-12T00:40:58;10.20;1.00
14031;DHT22;7090;49.436;8.490;2023-04-12T00:43:24;10.20;1.00
14031;DHT22;7090;49.436;8.490;2023-04-12T00:45:53;10.10;1.00
14031;DHT22;7090;49.436;8.490;2023-04-12T00:48:19;10.10;1.00
14031;DHT22;7090;49.436;8.490;2023-04-12T00:50:45;10.10;1.00
14031;DHT22;7090;49.436;8.490;2023-04-12T00:53:13;10.10;1.00
14031;DHT22;7090;49.436;8.490;2023-04-12T00:55:49;10.00;1.00
14031;DHT22;7090;49.436;8.490;2023-04-12T00:58:16;9.90;1.00
14031;DHT22;7090;49.436;8.490;2023-04-12T01:00:42;9.80;1.00
14031;DHT22;7090;49.436;8.490;2023-04-12T01:03:15;9.80;68.30
14031;DHT22;7090;49.436;8.490;2023-04-12T01:08:31;9.60;99.90
14031;DHT22;7090;49.436;8.490;2023-04-12T01:11:12;9.50;99.90
14031;DHT22;7090;49.436;8.490;2023-04-12T01:13:50;9.40;99.90
14031;DHT22;7090;49.436;8.490;2023-04-12T01:16:39;9.40;99.90
14031;DHT22;7090;49.436;8.490;2023-04-12T01:24:54;9.20;99.90
14031;DHT22;7090;49.436;8.490;2023-04-12T01:27:44;9.10;99.90
14031;DHT22;7090;49.436;8.490;2023-04-12T01:30:13;9.10;99.90
14031;DHT22;7090;49.436;8.490;2023-04-12T01:32:43;9.00;99.90
14031;DHT22;7090;49.436;8.490;2023-04-12T01:35:09;8.90;99.90
14031;DHT22;7090;49.436;8.490;2023-04-12T01:37:36;8.90;99.90
14031;DHT22;7090;49.436;8.490;2023-04-12T01:40:02;8.90;99.90
14031;DHT22;7090;49.436;8.490;2023-04-12T01:42:30;8.90;99.90
14031;DHT22;7090;49.436;8.490;2023-04-12T01:44:57;8.80;99.90
14031;DHT22;7090;49.436;8.490;2023-04-12T01:47:22;8.80;99.90
14031;DHT22;7090;49.436;8.490;2023-04-12T01:49:55;8.70;99.90
14031;DHT22;7090;49.436;8.490;2023-04-12T01:52:26;8.70;99.90
14031;DHT22;7090;49.436;8.490;2023-04-12T01:54:56;8.70;99.90
14031;DHT22;7090;49.436;8.490;2023-04-12T01:57:24;8.60;99.90
14031;DHT22;7090;49.436;8.490;2023-04-12T01:59:52;8.60;99.90
14031;DHT22;7090;49.436;8.490;2023-04-12T02:02:19;8.60;99.90
14031;DHT22;7090;49.436;8.490;2023-04-12T02:04:46;8.60;99.90
14031;DHT22;7090;49.436;8.490;2023-04-12T02:07:12;8.60;99.90
14031;DHT22;7090;49.436;8.490;2023-04-12T02:09:39;8.50;99.90
14031;DHT22;7090;49.436;8.490;2023-04-12T02:12:06;8.50;99.90
14031;DHT22;7090;49.436;8.490;2023-04-12T02:14:32;8.50;99.90
14031;DHT22;7090;49.436;8.490;2023-04-12T02:16:57;8.50;99.90
14031;DHT22;7090;49.436;8.490;2023-04-12T02:19:24;8.40;99.90
14031;DHT22;7090;49.436;8.490;2023-04-12T02:21:49;8.40;99.90
14031;DHT22;7090;49.436;8.490;2023-04-12T02:24:15;8.40;99.90
14031;DHT22;7090;49.436;8.490;2023-04-12T02:26:41;8.40;99.90
14031;DHT22;7090;49.436;8.490;2023-04-12T02:29:08;8.40;99.90
14031;DHT22;7090;49.436;8.490;2023-04-12T02:31:35;8.40;99.90
14031;DHT22;7090;49.436;8.490;2023-04-12T02:34:03;8.40;99.90
14031;DHT22;7090;49.436;8.490;2023-04-12T02:36:29;8.40;99.90
14031;DHT22;7090;49.436;8.490;2023-04-12T02:38:54;8.40;99.90
14031;DHT22;7090;49.436;8.490;2023-04-12T02:41:21;8.40;99.90
14031;DHT22;7090;49.436;8.490;2023-04-12T02:43:47;8.40;99.90
14031;DHT22;7090;49.436;8.490;2023-04-12T02:46:18;8.30;99.90
14031;DHT22;7090;49.436;8.490;2023-04-12T02:48:46;8.40;99.90
14031;DHT22;7090;49.436;8.490;2023-04-12T02:51:12;8.40;99.90
14031;DHT22;7090;49.436;8.490;2023-04-12T02:53:37;8.40;99.90
14031;DHT22;7090;49.436;8.490;2023-04-12T02:56:06;8.40;99.90
14031;DHT22;7090;49.436;8.490;2023-04-12T02:58:35;8.40;99.90
14031;DHT22;7090;49.436;8.490;2023-04-12T03:01:01;8.40;99.90
14031;DHT22;7090;49.436;8.490;2023-04-12T03:03:33;8.30;99.90
14031;DHT22;7090;49.436;8.490;2023-04-12T03:05:59;8.30;99.90
14031;DHT22;7090;49.436;8.490;2023-04-12T03:08:25;8.30;99.90
14031;DHT22;7090;49.436;8.490;2023-04-12T03:10:51;8.30;99.90
14031;DHT22;7090;49.436;8.490;2023-04-12T03:13:16;8.30;99.90
14031;DHT22;7090;49.436;8.490;2023-04-12T03:15:42;8.30;99.90
14031;DHT22;7090;49.436;8.490;2023-04-12T03:18:10;8.30;99.90
14031;DHT22;7090;49.436;8.490;2023-04-12T03:20:36;8.30;99.90
14031;DHT22;7090;49.436;8.490;2023-04-12T03:23:03;8.20;99.90
14031;DHT22;7090;49.436;8.490;2023-04-12T03:25:29;8.30;99.90
14031;DHT22;7090;49.436;8.490;2023-04-12T03:27:55;8.30;99.90
14031;DHT22;7090;49.436;8.490;2023-04-12T03:30:21;8.30;99.90
14031;DHT22;7090;49.436;8.490;2023-04-12T03:32:46;8.30;99.90
14031;DHT22;7090;49.436;8.490;2023-04-12T03:35:12;8.30;99.90
14031;DHT22;7090;49.436;8.490;2023-04-12T03:37:40;8.30;99.90
14031;DHT22;7090;49.436;8.490;2023-04-12T03:40:07;8.30;99.90
14031;DHT22;7090;49.436;8.490;2023-04-12T03:42:32;8.30;99.90
14031;DHT22;7090;49.436;8.490;2023-04-12T03:44:58;8.30;99.90
14031;DHT22;7090;49.436;8.490;2023-04-12T03:47:23;8.30;99.90
14031;DHT22;7090;49.436;8.490;2023-04-12T03:49:49;8.30;99.90
14031;DHT22;7090;49.436;8.490;2023-04-12T03:52:15;8.30;99.90
14031;DHT22;7090;49.436;8.490;2023-04-12T03:54:40;8.30;99.90
14031;DHT22;7090;49.436;8.490;2023-04-12T03:57:06;8.30;99.90
14031;DHT22;7090;49.436;8.490;2023-04-12T03:59:32;8.30;99.90
14031;DHT22;7090;49.436;8.490;2023-04-12T04:01:58;8.40;99.90
14031;DHT22;7090;49.436;8.490;2023-04-12T04:04:27;8.30;99.90
14031;DHT22;7090;49.436;8.490;2023-04-12T04:06:53;8.30;99.90
14031;DHT22;7090;49.436;8.490;2023-04-12T04:09:19;8.30;99.90
14031;DHT22;7090;49.436;8.490;2023-04-12T04:11:44;8.30;99.90
14031;DHT22;7090;49.436;8.490;2023-04-12T04:14:11;8.30;99.90
14031;DHT22;7090;49.436;8.490;2023-04-12T04:16:37;8.30;99.90
14031;DHT22;7090;49.436;8.490;2023-04-12T04:19:02;8.30;99.90
14031;DHT22;7090;49.436;8.490;2023-04-12T04:21:28;8.30;99.90
14031;DHT22;7090;49.436;8.490;2023-04-12T04:23:58;8.30;99.90
14031;DHT22;7090;49.436;8.490;2023-04-12T04:26:26;8.30;99.90
14031;DHT22;7090;49.436;8.490;2023-04-12T04:28:58;8.30;99.90
14031;DHT22;7090;49.436;8.490;2023-04-12T04:31:27;8.20;99.90
14031;DHT22;7090;49.436;8.490;2023-04-12T04:33:59;8.30;99.90
14031;DHT22;7090;49.436;8.490;2023-04-12T04:36:25;8.30;99.90
14031;DHT22;7090;49.436;8.490;2023-04-12T04:38:51;8.30;99.90
14031;DHT22;7090;49.436;8.490;2023-04-12T04:41:17;8.30;99.90
14031;DHT22;7090;49.436;8.490;2023-04-12T04:43:47;8.20;99.90
14031;DHT22;7090;49.436;8.490;2023-04-12T04:46:13;8.30;99.90
14031;DHT22;7090;49.436;8.490;2023-04-12T04:48:39;8.20;99.90
14031;DHT22;7090;49.436;8.490;2023-04-12T04:51:05;8.20;99.90
14031;DHT22;7090;49.436;8.490;2023-04-12T04:53:31;8.20;99.90
14031;DHT22;7090;49.436;8.490;2023-04-12T04:55:57;8.20;99.90
14031;DHT22;7090;49.436;8.490;2023-04-12T04:58:24;8.20;99.90
14031;DHT22;7090;49.436;8.490;2023-04-12T05:00:49;8.20;99.90
14031;DHT22;7090;49.436;8.490;2023-04-12T05:03:15;8.20;99.90
14031;DHT22;7090;49.436;8.490;2023-04-12T05:05:41;8.20;99.90
14031;DHT22;7090;49.436;8.490;2023-04-12T05:08:06;8.20;99.90
14031;DHT22;7090;49.436;8.490;2023-04-12T05:10:38;8.20;99.90
14031;DHT22;7090;49.436;8.490;2023-04-12T05:16:26;8.20;99.90
14031;DHT22;7090;49.436;8.490;2023-04-12T05:18:51;8.20;99.90
14031;DHT22;7090;49.436;8.490;2023-04-12T05:21:17;8.20;99.90
14031;DHT22;7090;49.436;8.490;2023-04-12T05:23:44;8.20;99.90
14031;DHT22;7090;49.436;8.490;2023-04-12T05:26:10;8.20;99.90
14031;DHT22;7090;49.436;8.490;2023-04-12T05:28:36;8.20;99.90
14031;DHT22;7090;49.436;8.490;2023-04-12T05:31:02;8.20;99.90
14031;DHT22;7090;49.436;8.490;2023-04-12T05:33:27;8.20;99.90
14031;DHT22;7090;49.436;8.490;2023-04-12T05:35:53;8.30;99.90
14031;DHT22;7090;49.436;8.490;2023-04-12T05:38:18;8.30;99.90
14031;DHT22;7090;49.436;8.490;2023-04-12T05:40:44;8.30;99.90
14031;DHT22;7090;49.436;8.490;2023-04-12T05:43:10;8.30;99.90
14031;DHT22;7090;49.436;8.490;2023-04-12T05:45:39;8.30;99.90
14031;DHT22;7090;49.436;8.490;2023-04-12T05:48:05;8.30;99.90
14031;DHT22;7090;49.436;8.490;2023-04-12T05:50:31;8.40;99.90
14031;DHT22;7090;49.436;8.490;2023-04-12T05:52:56;8.40;99.90
14031;DHT22;7090;49.436;8.490;2023-04-12T05:55:22;8.40;99.90
14031;DHT22;7090;49.436;8.490;2023-04-12T05:57:47;8.40;99.90
14031;DHT22;7090;49.436;8.490;2023-04-12T06:00:13;8.40;99.90
14031;DHT22;7090;49.436;8.490;2023-04-12T06:02:46;8.40;99.90
14031;DHT22;7090;49.436;8.490;2023-04-12T06:05:13;8.40;99.90
14031;DHT22;7090;49.436;8.490;2023-04-12T06:07:40;8.50;99.90
14031;DHT22;7090;49.436;8.490;2023-04-12T06:10:13;8.50;99.90
14031;DHT22;7090;49.436;8.490;2023-04-12T06:12:40;8.50;99.90
14031;DHT22;7090;49.436;8.490;2023-04-12T06:15:06;8.50;99.90
14031;DHT22;7090;49.436;8.490;2023-04-12T06:17:33;8.60;99.90
14031;DHT22;7090;49.436;8.490;2023-04-12T06:19:58;8.60;99.90
14031;DHT22;7090;49.436;8.490;2023-04-12T06:22:24;8.60;99.90
14031;DHT22;7090;49.436;8.490;2023-04-12T06:24:50;8.60;99.90
14031;DHT22;7090;49.436;8.490;2023-04-12T06:27:15;8.60;99.90
14031;DHT22;7090;49.436;8.490;2023-04-12T06:29:41;8.60;99.90
14031;DHT22;7090;49.436;8.490;2023-04-12T06:32:06;8.70;99.90
14031;DHT22;7090;49.436;8.490;2023-04-12T06:34:32;8.70;99.90
14031;DHT22;7090;49.436;8.490;2023-04-12T06:36:57;8.70;99.90
14031;DHT22;7090;49.436;8.490;2023-04-12T06:39:24;8.70;99.90
14031;DHT22;7090;49.436;8.490;2023-04-12T06:41:49;8.80;99.90
14031;DHT22;7090;49.436;8.490;2023-04-12T06:44:15;8.80;99.90
14031;DHT22;7090;49.436;8.490;2023-04-12T06:46:41;8.80;99.90
14031;DHT22;7090;49.436;8.490;2023-04-12T06:49:07;8.80;99.90
14031;DHT22;7090;49.436;8.490;2023-04-12T06:51:33;8.80;99.90
14031;DHT22;7090;49.436;8.490;2023-04-12T06:54:01;8.90;99.90
14031;DHT22;7090;49.436;8.490;2023-04-12T06:56:27;8.90;99.90
14031;DHT22;7090;49.436;8.490;2023-04-12T06:58:52;8.90;99.90
14031;DHT22;7090;49.436;8.490;2023-04-12T07:01:18;8.90;99.90
14031;DHT22;7090;49.436;8.490;2023-04-12T07:03:43;8.90;99.90
14031;DHT22;7090;49.436;8.490;2023-04-12T07:06:09;8.90;99.90
14031;DHT22;7090;49.436;8.490;2023-04-12T07:08:35;9.00;99.90
14031;DHT22;7090;49.436;8.490;2023-04-12T07:11:02;9.00;99.90
14031;DHT22;7090;49.436;8.490;2023-04-12T07:13:27;9.00;99.90
14031;DHT22;7090;49.436;8.490;2023-04-12T07:15:53;9.00;99.90
14031;DHT22;7090;49.436;8.490;2023-04-12T07:18:19;9.00;99.90
14031;DHT22;7090;49.436;8.490;2023-04-12T07:20:49;9.00;99.90
14031;DHT22;7090;49.436;8.490;2023-04-12T07:23:15;9.10;99.90
14031;DHT22;7090;49.436;8.490;2023-04-12T07:25:41;9.10;99.90
14031;DHT22;7090;49.436;8.490;2023-04-12T07:28:07;9.10;99.90
14031;DHT22;7090;49.436;8.490;2023-04-12T07:30:32;9.10;99.90
14031;DHT22;7090;49.436;8.490;2023-04-12T07:32:58;9.10;99.90
14031;DHT22;7090;49.436;8.490;2023-04-12T07:35:32;9.20;99.90
14031;DHT22;7090;49.436;8.490;2023-04-12T07:37:58;9.20;99.90
14031;DHT22;7090;49.436;8.490;2023-04-12T07:40:24;9.30;99.90
14031;DHT22;7090;49.436;8.490;2023-04-12T07:42:50;9.30;99.90
14031;DHT22;7090;49.436;8.490;2023-04-12T07:45:15;9.30;99.90
14031;DHT22;7090;49.436;8.490;2023-04-12T07:47:41;9.30;99.90
14031;DHT22;7090;49.436;8.490;2023-04-12T07:50:07;9.30;99.90
14031;DHT22;7090;49.436;8.490;2023-04-12T07:52:33;9.30;99.90
14031;DHT22;7090;49.436;8.490;2023-04-12T07:54:59;9.20;99.90
14031;DHT22;7090;49.436;8.490;2023-04-12T07:57:25;9.30;99.90
14031;DHT22;7090;49.436;8.490;2023-04-12T07:59:51;9.30;99.90
14031;DHT22;7090;49.436;8.490;2023-04-12T08:02:17;9.40;99.90
14031;DHT22;7090;49.436;8.490;2023-04-12T08:04:52;9.40;99.90
14031;DHT22;7090;49.436;8.490;2023-04-12T08:07:18;9.40;99.90
14031;DHT22;7090;49.436;8.490;2023-04-12T08:09:43;9.40;99.90
14031;DHT22;7090;49.436;8.490;2023-04-12T08:12:09;9.50;99.90
14031;DHT22;7090;49.436;8.490;2023-04-12T08:14:35;9.50;99.90
14031;DHT22;7090;49.436;8.490;2023-04-12T08:17:01;9.50;99.90
14031;DHT22;7090;49.436;8.490;2023-04-12T08:19:27;9.60;99.90
14031;DHT22;7090;49.436;8.490;2023-04-12T08:21:52;9.60;99.90
14031;DHT22;7090;49.436;8.490;2023-04-12T08:24:18;9.70;99.90
14031;DHT22;7090;49.436;8.490;2023-04-12T08:26:44;9.80;99.90
14031;DHT22;7090;49.436;8.490;2023-04-12T08:29:10;9.90;99.90
14031;DHT22;7090;49.436;8.490;2023-04-12T08:31:36;9.90;99.90
14031;DHT22;7090;49.436;8.490;2023-04-12T08:34:02;10.00;99.90
14031;DHT22;7090;49.436;8.490;2023-04-12T08:36:28;10.00;99.90
14031;DHT22;7090;49.436;8.490;2023-04-12T08:38:58;10.20;99.90
14031;DHT22;7090;49.436;8.490;2023-04-12T08:41:24;10.30;99.90
14031;DHT22;7090;49.436;8.490;2023-04-12T08:43:49;10.40;99.90
14031;DHT22;7090;49.436;8.490;2023-04-12T08:46:16;10.60;99.90
14031;DHT22;7090;49.436;8.490;2023-04-12T08:48:44;10.60;99.90
14031;DHT22;7090;49.436;8.490;2023-04-12T08:51:15;10.60;99.90
14031;DHT22;7090;49.436;8.490;2023-04-12T08:53:41;10.60;99.90
14031;DHT22;7090;49.436;8.490;2023-04-12T08:56:11;10.70;99.90
14031;DHT22;7090;49.436;8.490;2023-04-12T08:58:42;10.70;99.90
14031;DHT22;7090;49.436;8.490;2023-04-12T09:01:13;10.70;99.90
14031;DHT22;7090;49.436;8.490;2023-04-12T09:03:44;10.70;99.90
14031;DHT22;7090;49.436;8.490;2023-04-12T09:06:11;10.70;99.90
14031;DHT22;7090;49.436;8.490;2023-04-12T09:08:50;10.80;99.90
14031;DHT22;7090;49.436;8.490;2023-04-12T09:11:28;10.80;99.90
14031;DHT22;7090;49.436;8.490;2023-04-12T09:13:54;10.80;99.90
14031;DHT22;7090;49.436;8.490;2023-04-12T09:16:37;10.80;99.90
14031;DHT22;7090;49.436;8.490;2023-04-12T09:19:03;10.90;99.90
14031;DHT22;7090;49.436;8.490;2023-04-12T09:21:30;11.00;99.90
14031;DHT22;7090;49.436;8.490;2023-04-12T09:24:14;11.10;99.90
14031;DHT22;7090;49.436;8.490;2023-04-12T09:26:40;11.10;99.90
14031;DHT22;7090;49.436;8.490;2023-04-12T09:29:22;11.10;99.90
14031;DHT22;7090;49.436;8.490;2023-04-12T09:32:02;11.20;99.90
14031;DHT22;7090;49.436;8.490;2023-04-12T09:34:32;11.30;99.90
14031;DHT22;7090;49.436;8.490;2023-04-12T09:37:12;11.30;99.90
14031;DHT22;7090;49.436;8.490;2023-04-12T09:39:38;11.20;99.90
14031;DHT22;7090;49.436;8.490;2023-04-12T09:42:11;11.30;99.90
14031;DHT22;7090;49.436;8.490;2023-04-12T09:44:37;11.30;99.90
14031;DHT22;7090;49.436;8.490;2023-04-12T09:47:03;11.20;99.90
14031;DHT22;7090;49.436;8.490;2023-04-12T09:49:43;11.20;99.90
14031;DHT22;7090;49.436;8.490;2023-04-12T09:52:11;11.20;99.90
14031;DHT22;7090;49.436;8.490;2023-04-12T09:54:44;11.30;99.90
14031;DHT22;7090;49.436;8.490;2023-04-12T09:57:11;11.30;99.90
14031;DHT22;7090;49.436;8.490;2023-04-12T09:59:39;11.30;99.90
14031;DHT22;7090;49.436;8.490;2023-04-12T10:02:16;11.30;99.90
14031;DHT22;7090;49.436;8.490;2023-04-12T10:04:43;11.30;99.90
14031;DHT22;7090;49.436;8.490;2023-04-12T10:07:09;11.40;99.90
14031;DHT22;7090;49.436;8.490;2023-04-12T10:09:38;11.40;99.90
14031;DHT22;7090;49.436;8.490;2023-04-12T10:12:05;11.40;99.90
14031;DHT22;7090;49.436;8.490;2023-04-12T10:14:31;11.50;99.90
14031;DHT22;7090;49.436;8.490;2023-04-12T10:16:58;11.40;99.90
14031;DHT22;7090;49.436;8.490;2023-04-12T10:19:25;11.40;99.90
14031;DHT22;7090;49.436;8.490;2023-04-12T10:21:51;11.40;99.90
14031;DHT22;7090;49.436;8.490;2023-04-12T10:24:19;11.50;99.90
14031;DHT22;7090;49.436;8.490;2023-04-12T10:26:46;11.60;99.90
14031;DHT22;7090;49.436;8.490;2023-04-12T10:29:33;11.60;99.90
14031;DHT22;7090;49.436;8.490;2023-04-12T10:32:23;11.60;99.90
14031;DHT22;7090;49.436;8.490;2023-04-12T10:34:54;11.70;99.90
14031;DHT22;7090;49.436;8.490;2023-04-12T10:37:21;11.80;99.90
14031;DHT22;7090;49.436;8.490;2023-04-12T10:39:53;11.80;99.90
14031;DHT22;7090;49.436;8.490;2023-04-12T10:44:52;11.80;99.90
14031;DHT22;7090;49.436;8.490;2023-04-12T10:53:23;11.80;99.90
14031;DHT22;7090;49.436;8.490;2023-04-12T10:55:49;11.90;99.90
14031;DHT22;7090;49.436;8.490;2023-04-12T11:01:12;11.80;99.90
14031;DHT22;7090;49.436;8.490;2023-04-12T11:09:19;11.90;99.90
14031;DHT22;7090;49.436;8.490;2023-04-12T11:11:44;11.90;99.90
14031;DHT22;7090;49.436;8.490;2023-04-12T11:14:14;12.00;99.90
14031;DHT22;7090;49.436;8.490;2023-04-12T11:19:31;12.00;99.90
14031;DHT22;7090;49.436;8.490;2023-04-12T11:21:59;12.10;99.90
14031;DHT22;7090;49.436;8.490;2023-04-12T11:24:26;11.90;99.90
14031;DHT22;7090;49.436;8.490;2023-04-12T11:26:53;11.90;99.90
14031;DHT22;7090;49.436;8.490;2023-04-12T11:29:27;11.90;99.90
14031;DHT22;7090;49.436;8.490;2023-04-12T11:31:53;11.90;99.90
14031;DHT22;7090;49.436;8.490;2023-04-12T11:34:21;12.00;99.90
14031;DHT22;7090;49.436;8.490;2023-04-12T11:36:51;12.10;99.90
14031;DHT22;7090;49.436;8.490;2023-04-12T11:39:18;12.20;99.90
14031;DHT22;7090;49.436;8.490;2023-04-12T11:41:47;12.20;99.90
14031;DHT22;7090;49.436;8.490;2023-04-12T11:44:14;12.30;99.90
14031;DHT22;7090;49.436;8.490;2023-04-12T11:46:44;12.50;99.90
14031;DHT22;7090;49.436;8.490;2023-04-12T11:49:13;12.50;99.90
14031;DHT22;7090;49.436;8.490;2023-04-12T11:51:40;12.60;99.90
14031;DHT22;7090;49.436;8.490;2023-04-12T11:54:06;12.60;99.90
14031;DHT22;7090;49.436;8.490;2023-04-12T11:56:31;12.50;99.90
14031;DHT22;7090;49.436;8.490;2023-04-12T11:58:58;12.60;99.90
14031;DHT22;7090;49.436;8.490;2023-04-12T12:01:23;12.50;99.90
14031;DHT22;7090;49.436;8.490;2023-04-12T12:03:50;12.60;99.90
14031;DHT22;7090;49.436;8.490;2023-04-12T12:06:15;12.50;99.90
14031;DHT22;7090;49.436;8.490;2023-04-12T12:08:42;12.40;99.90
14031;DHT22;7090;49.436;8.490;2023-04-12T12:11:08;12.50;99.90
14031;DHT22;7090;49.436;8.490;2023-04-12T12:16:15;12.50;99.90
14031;DHT22;7090;49.436;8.490;2023-04-12T12:18:42;12.50;99.90
14031;DHT22;7090;49.436;8.490;2023-04-12T12:21:10;12.60;99.90
14031;DHT22;7090;49.436;8.490;2023-04-12T12:23:36;12.80;99.90
14031;DHT22;7090;49.436;8.490;2023-04-12T12:26:02;12.90;99.90
14031;DHT22;7090;49.436;8.490;2023-04-12T12:28:28;13.00;99.90
14031;DHT22;7090;49.436;8.490;2023-04-12T12:30:57;13.10;99.90
14031;DHT22;7090;49.436;8.490;2023-04-12T12:33:23;13.10;99.90
14031;DHT22;7090;49.436;8.490;2023-04-12T12:35:56;13.20;99.90
14031;DHT22;7090;49.436;8.490;2023-04-12T12:38:22;13.10;99.90
14031;DHT22;7090;49.436;8.490;2023-04-12T12:40:48;13.00;99.90
14031;DHT22;7090;49.436;8.490;2023-04-12T12:43:18;13.00;99.90
14031;DHT22;7090;49.436;8.490;2023-04-12T12:45:45;12.70;99.90
14031;DHT22;7090;49.436;8.490;2023-04-12T12:48:11;12.40;99.90
14031;DHT22;7090;49.436;8.490;2023-04-12T12:50:37;12.40;99.90
14031;DHT22;7090;49.436;8.490;2023-04-12T12:53:03;12.40;99.90
14031;DHT22;7090;49.436;8.490;2023-04-12T12:55:31;12.30;99.90
14031;DHT22;7090;49.436;8.490;2023-04-12T12:57:58;12.30;99.90
14031;DHT22;7090;49.436;8.490;2023-04-12T13:00:26;12.30;99.90
14031;DHT22;7090;49.436;8.490;2023-04-12T13:02:52;12.30;99.90
14031;DHT22;7090;49.436;8.490;2023-04-12T13:05:18;12.40;99.90
14031;DHT22;7090;49.436;8.490;2023-04-12T13:07:45;12.40;99.90
14031;DHT22;7090;49.436;8.490;2023-04-12T13:10:11;12.50;99.90
14031;DHT22;7090;49.436;8.490;2023-04-12T13:12:37;12.50;99.90
14031;DHT22;7090;49.436;8.490;2023-04-12T13:15:03;12.80;99.90
14031;DHT22;7090;49.436;8.490;2023-04-12T13:17:29;12.80;99.90
14031;DHT22;7090;49.436;8.490;2023-04-12T13:19:56;12.80;99.90
14031;DHT22;7090;49.436;8.490;2023-04-12T13:22:22;12.70;99.90
14031;DHT22;7090;49.436;8.490;2023-04-12T13:24:48;12.60;99.90
14031;DHT22;7090;49.436;8.490;2023-04-12T13:27:14;12.60;99.90
14031;DHT22;7090;49.436;8.490;2023-04-12T13:29:40;12.50;99.90
14031;DHT22;7090;49.436;8.490;2023-04-12T13:32:06;12.40;99.90
14031;DHT22;7090;49.436;8.490;2023-04-12T13:34:32;12.40;99.90
14031;DHT22;7090;49.436;8.490;2023-04-12T13:36:58;12.40;99.90
14031;DHT22;7090;49.436;8.490;2023-04-12T13:39:24;12.40;99.90
14031;DHT22;7090;49.436;8.490;2023-04-12T13:41:50;12.40;99.90
14031;DHT22;7090;49.436;8.490;2023-04-12T13:44:16;12.30;99.90
14031;DHT22;7090;49.436;8.490;2023-04-12T13:46:41;12.30;99.90
14031;DHT22;7090;49.436;8.490;2023-04-12T13:49:07;12.30;99.90
14031;DHT22;7090;49.436;8.490;2023-04-12T13:51:32;12.40;99.90
14031;DHT22;7090;49.436;8.490;2023-04-12T13:53:58;12.50;99.90
14031;DHT22;7090;49.436;8.490;2023-04-12T13:56:24;12.60;99.90
14031;DHT22;7090;49.436;8.490;2023-04-12T13:58:50;12.70;99.90
14031;DHT22;7090;49.436;8.490;2023-04-12T14:01:16;12.80;99.90
14031;DHT22;7090;49.436;8.490;2023-04-12T14:03:42;12.90;99.90
14031;DHT22;7090;49.436;8.490;2023-04-12T14:06:08;12.90;99.90
14031;DHT22;7090;49.436;8.490;2023-04-12T14:08:34;12.90;99.90
14031;DHT22;7090;49.436;8.490;2023-04-12T14:11:01;12.80;99.90
14031;DHT22;7090;49.436;8.490;2023-04-12T14:13:27;12.80;99.90
14031;DHT22;7090;49.436;8.490;2023-04-12T14:15:53;12.80;99.90
14031;DHT22;7090;49.436;8.490;2023-04-12T14:18:19;12.80;99.90
14031;DHT22;7090;49.436;8.490;2023-04-12T14:20:49;12.80;99.90
14031;DHT22;7090;49.436;8.490;2023-04-12T14:23:17;12.80;99.90
14031;DHT22;7090;49.436;8.490;2023-04-12T14:25:43;12.80;99.90
14031;DHT22;7090;49.436;8.490;2023-04-12T14:28:09;12.80;99.90
14031;DHT22;7090;49.436;8.490;2023-04-12T14:30:34;12.80;99.90
14031;DHT22;7090;49.436;8.490;2023-04-12T14:33:00;12.80;99.90
14031;DHT22;7090;49.436;8.490;2023-04-12T14:35:25;12.70;99.90
14031;DHT22;7090;49.436;8.490;2023-04-12T14:37:51;12.60;99.90
14031;DHT22;7090;49.436;8.490;2023-04-12T14:40:18;12.60;99.90
14031;DHT22;7090;49.436;8.490;2023-04-12T14:42:43;12.50;99.90
14031;DHT22;7090;49.436;8.490;2023-04-12T14:45:09;12.50;99.90
14031;DHT22;7090;49.436;8.490;2023-04-12T14:47:35;12.40;99.90
14031;DHT22;7090;49.436;8.490;2023-04-12T14:50:04;12.40;99.90
14031;DHT22;7090;49.436;8.490;2023-04-12T14:52:29;12.50;99.90
14031;DHT22;7090;49.436;8.490;2023-04-12T14:54:55;12.40;99.90
14031;DHT22;7090;49.436;8.490;2023-04-12T14:57:21;12.40;99.90
14031;DHT22;7090;49.436;8.490;2023-04-12T14:59:46;12.60;99.90
14031;DHT22;7090;49.436;8.490;2023-04-12T15:02:12;12.50;99.90
14031;DHT22;7090;49.436;8.490;2023-04-12T15:04:38;12.50;99.90
14031;DHT22;7090;49.436;8.490;2023-04-12T15:07:03;12.40;99.90
14031;DHT22;7090;49.436;8.490;2023-04-12T15:09:29;12.40;99.90
14031;DHT22;7090;49.436;8.490;2023-04-12T15:11:54;12.30;99.90
14031;DHT22;7090;49.436;8.490;2023-04-12T15:14:25;12.40;99.90
14031;DHT22;7090;49.436;8.490;2023-04-12T15:16:52;12.50;99.90
14031;DHT22;7090;49.436;8.490;2023-04-12T15:19:19;12.50;99.90
14031;DHT22;7090;49.436;8.490;2023-04-12T15:21:47;12.50;99.90
14031;DHT22;7090;49.436;8.490;2023-04-12T15:24:16;12.60;99.90
14031;DHT22;7090;49.436;8.490;2023-04-12T15:26:42;12.70;99.90
14031;DHT22;7090;49.436;8.490;2023-04-12T15:29:07;12.80;99.90
14031;DHT22;7090;49.436;8.490;2023-04-12T15:31:33;12.80;99.90
14031;DHT22;7090;49.436;8.490;2023-04-12T15:33:59;12.90;99.90
14031;DHT22;7090;49.436;8.490;2023-04-12T15:36:25;12.90;99.90
14031;DHT22;7090;49.436;8.490;2023-04-12T15:38:58;12.80;99.90
14031;DHT22;7090;49.436;8.490;2023-04-12T15:41:23;12.80;99.90
14031;DHT22;7090;49.436;8.490;2023-04-12T15:43:49;12.80;99.90
14031;DHT22;7090;49.436;8.490;2023-04-12T15:46:15;12.90;99.90
14031;DHT22;7090;49.436;8.490;2023-04-12T15:48:41;13.10;99.90
14031;DHT22;7090;49.436;8.490;2023-04-12T15:51:06;13.30;99.90
14031;DHT22;7090;49.436;8.490;2023-04-12T15:53:32;13.20;99.90
14031;DHT22;7090;49.436;8.490;2023-04-12T15:55:57;13.30;99.90
14031;DHT22;7090;49.436;8.490;2023-04-12T15:58:23;13.70;99.90
14031;DHT22;7090;49.436;8.490;2023-04-12T16:00:49;14.30;99.90
14031;DHT22;7090;49.436;8.490;2023-04-12T16:03:17;14.50;99.90
14031;DHT22;7090;49.436;8.490;2023-04-12T16:05:45;14.70;99.90
14031;DHT22;7090;49.436;8.490;2023-04-12T16:08:11;14.80;99.90
14031;DHT22;7090;49.436;8.490;2023-04-12T16:10:37;14.70;1.00
14031;DHT22;7090;49.436;8.490;2023-04-12T16:13:04;15.10;1.00
14031;DHT22;7090;49.436;8.490;2023-04-12T16:15:29;15.30;99.90
14031;DHT22;7090;49.436;8.490;2023-04-12T16:17:55;14.90;1.00
14031;DHT22;7090;49.436;8.490;2023-04-12T16:20:22;14.90;1.00
14031;DHT22;7090;49.436;8.490;2023-04-12T16:22:49;15.40;99.90
14031;DHT22;7090;49.436;8.490;2023-04-12T16:25:18;15.70;1.00
14031;DHT22;7090;49.436;8.490;2023-04-12T16:27:44;15.90;99.90
14031;DHT22;7090;49.436;8.490;2023-04-12T16:30:11;15.30;1.00